Buffville, Kansas
Current Conditions -  °F | °C
As of 6:52 PM on Friday 19 Dec 2014 (Local Time) from KPPF Reporting Station
Haze Haze  
Wind Chill: 37°   Ceiling: 300
Heat Index: 37°   Visibility: 4mi
Dew Point: 36°   Wind: 3mph
Humidity: 96%   Direction: 340°NNW
Pressure: 30.21"   Gusts: NA
Location:  37.428°N, 95.6341°W
Report Text: KPPF 200052Z AUTO 34003KT 4SM BR OVC003 03/02 A3021 RMK AO2 SLP237 T00280022
Loading
Personal Weather Stations






























Interactive Weather Map New forecast layout! Learn more

10-Day Weather Forecast

Advertisements
Track Severe Weather on mobile